sensor_id;sensor_type;location;lat;lon;timestamp;P1;durP1;ratioP1;P2;durP2;ratioP2
80411;SDS011;69749;42.684;23.360;2023-05-10T00:02:22;8.63;;;5.45;;
80411;SDS011;69749;42.684;23.360;2023-05-10T00:04:48;8.75;;;5.28;;
80411;SDS011;69749;42.684;23.360;2023-05-10T00:07:13;7.38;;;5.30;;
80411;SDS011;69749;42.684;23.360;2023-05-10T00:09:38;8.05;;;6.22;;
80411;SDS011;69749;42.684;23.360;2023-05-10T00:12:05;9.93;;;6.82;;
80411;SDS011;69749;42.684;23.360;2023-05-10T00:14:30;11.85;;;7.47;;
80411;SDS011;69749;42.684;23.360;2023-05-10T00:16:56;9.93;;;7.32;;
80411;SDS011;69749;42.684;23.360;2023-05-10T00:19:21;8.95;;;7.13;;
80411;SDS011;69749;42.684;23.360;2023-05-10T00:21:46;12.20;;;7.63;;
80411;SDS011;69749;42.684;23.360;2023-05-10T00:24:12;11.18;;;7.47;;
80411;SDS011;69749;42.684;23.360;2023-05-10T00:26:37;10.82;;;7.43;;
80411;SDS011;69749;42.684;23.360;2023-05-10T00:29:02;8.10;;;6.38;;
80411;SDS011;69749;42.684;23.360;2023-05-10T00:31:28;9.32;;;7.13;;
80411;SDS011;69749;42.684;23.360;2023-05-10T00:33:54;12.18;;;8.00;;
80411;SDS011;69749;42.684;23.360;2023-05-10T00:36:19;12.35;;;8.52;;
80411;SDS011;69749;42.684;23.360;2023-05-10T00:38:45;11.88;;;7.72;;
80411;SDS011;69749;42.684;23.360;2023-05-10T00:41:11;8.95;;;6.60;;
80411;SDS011;69749;42.684;23.360;2023-05-10T00:43:36;12.15;;;7.88;;
80411;SDS011;69749;42.684;23.360;2023-05-10T00:46:02;11.10;;;7.28;;
80411;SDS011;69749;42.684;23.360;2023-05-10T00:48:28;10.35;;;7.72;;
80411;SDS011;69749;42.684;23.360;2023-05-10T00:50:54;10.63;;;8.07;;
80411;SDS011;69749;42.684;23.360;2023-05-10T00:53:19;10.73;;;7.80;;
80411;SDS011;69749;42.684;23.360;2023-05-10T00:55:45;11.52;;;8.07;;
80411;SDS011;69749;42.684;23.360;2023-05-10T00:58:10;11.15;;;7.72;;
80411;SDS011;69749;42.684;23.360;2023-05-10T01:00:37;11.45;;;8.07;;
80411;SDS011;69749;42.684;23.360;2023-05-10T01:03:05;11.63;;;8.05;;
80411;SDS011;69749;42.684;23.360;2023-05-10T01:05:30;12.48;;;8.73;;
80411;SDS011;69749;42.684;23.360;2023-05-10T01:07:56;11.15;;;8.27;;
80411;SDS011;69749;42.684;23.360;2023-05-10T01:10:22;9.75;;;6.55;;
80411;SDS011;69749;42.684;23.360;2023-05-10T01:12:47;9.48;;;7.57;;
80411;SDS011;69749;42.684;23.360;2023-05-10T01:15:13;8.32;;;6.47;;
80411;SDS011;69749;42.684;23.360;2023-05-10T01:17:41;9.82;;;6.97;;
80411;SDS011;69749;42.684;23.360;2023-05-10T01:20:09;11.07;;;7.18;;
80411;SDS011;69749;42.684;23.360;2023-05-10T01:28:32;8.85;;;6.47;;
80411;SDS011;69749;42.684;23.360;2023-05-10T01:31:34;12.85;;;7.32;;
80411;SDS011;69749;42.684;23.360;2023-05-10T01:34:16;9.18;;;6.35;;
80411;SDS011;69749;42.684;23.360;2023-05-10T01:36:51;7.43;;;5.47;;
80411;SDS011;69749;42.684;23.360;2023-05-10T01:39:23;7.32;;;5.55;;
80411;SDS011;69749;42.684;23.360;2023-05-10T01:41:52;10.07;;;5.78;;
80411;SDS011;69749;42.684;23.360;2023-05-10T01:50:10;6.50;;;5.38;;
80411;SDS011;69749;42.684;23.360;2023-05-10T01:52:43;8.15;;;5.70;;
80411;SDS011;69749;42.684;23.360;2023-05-10T01:55:13;8.23;;;5.32;;
80411;SDS011;69749;42.684;23.360;2023-05-10T01:57:42;7.20;;;5.35;;
80411;SDS011;69749;42.684;23.360;2023-05-10T02:00:09;6.80;;;4.88;;
80411;SDS011;69749;42.684;23.360;2023-05-10T02:02:37;8.43;;;5.97;;
80411;SDS011;69749;42.684;23.360;2023-05-10T02:05:05;8.13;;;5.43;;
80411;SDS011;69749;42.684;23.360;2023-05-10T02:07:31;7.25;;;5.65;;
80411;SDS011;69749;42.684;23.360;2023-05-10T02:10:00;6.70;;;5.10;;
80411;SDS011;69749;42.684;23.360;2023-05-10T02:12:28;7.20;;;5.00;;
80411;SDS011;69749;42.684;23.360;2023-05-10T02:14:55;9.93;;;5.60;;
80411;SDS011;69749;42.684;23.360;2023-05-10T02:17:21;6.70;;;5.13;;
80411;SDS011;69749;42.684;23.360;2023-05-10T02:19:48;7.43;;;6.13;;
80411;SDS011;69749;42.684;23.360;2023-05-10T02:22:16;11.18;;;6.15;;
80411;SDS011;69749;42.684;23.360;2023-05-10T02:24:43;8.35;;;5.97;;
80411;SDS011;69749;42.684;23.360;2023-05-10T02:27:10;7.53;;;5.47;;
80411;SDS011;69749;42.684;23.360;2023-05-10T02:29:37;8.23;;;6.43;;
80411;SDS011;69749;42.684;23.360;2023-05-10T02:32:03;11.30;;;5.85;;
80411;SDS011;69749;42.684;23.360;2023-05-10T02:34:29;8.07;;;5.75;;
80411;SDS011;69749;42.684;23.360;2023-05-10T02:36:56;8.57;;;5.57;;
80411;SDS011;69749;42.684;23.360;2023-05-10T02:39:22;7.25;;;5.28;;
80411;SDS011;69749;42.684;23.360;2023-05-10T02:41:50;7.47;;;5.35;;
80411;SDS011;69749;42.684;23.360;2023-05-10T02:44:17;6.65;;;5.18;;
80411;SDS011;69749;42.684;23.360;2023-05-10T02:46:44;5.93;;;5.20;;
80411;SDS011;69749;42.684;23.360;2023-05-10T02:49:10;10.75;;;5.43;;
80411;SDS011;69749;42.684;23.360;2023-05-10T02:51:36;8.18;;;4.72;;
80411;SDS011;69749;42.684;23.360;2023-05-10T02:54:12;8.57;;;4.50;;
80411;SDS011;69749;42.684;23.360;2023-05-10T02:56:46;8.32;;;5.07;;
80411;SDS011;69749;42.684;23.360;2023-05-10T02:59:15;6.03;;;4.80;;
80411;SDS011;69749;42.684;23.360;2023-05-10T03:01:41;7.70;;;4.43;;
80411;SDS011;69749;42.684;23.360;2023-05-10T03:04:06;7.57;;;4.68;;
80411;SDS011;69749;42.684;23.360;2023-05-10T03:06:32;6.85;;;4.28;;
80411;SDS011;69749;42.684;23.360;2023-05-10T03:08:57;7.45;;;4.68;;
80411;SDS011;69749;42.684;23.360;2023-05-10T03:14:39;6.25;;;4.55;;
80411;SDS011;69749;42.684;23.360;2023-05-10T03:17:15;6.65;;;4.43;;
80411;SDS011;69749;42.684;23.360;2023-05-10T03:20:11;7.25;;;5.10;;
80411;SDS011;69749;42.684;23.360;2023-05-10T03:22:43;6.07;;;4.53;;
80411;SDS011;69749;42.684;23.360;2023-05-10T03:25:11;7.47;;;5.00;;
80411;SDS011;69749;42.684;23.360;2023-05-10T03:27:40;8.27;;;4.90;;
80411;SDS011;69749;42.684;23.360;2023-05-10T03:30:08;9.98;;;4.75;;
80411;SDS011;69749;42.684;23.360;2023-05-10T03:32:36;8.82;;;5.80;;
80411;SDS011;69749;42.684;23.360;2023-05-10T03:35:08;8.75;;;5.05;;
80411;SDS011;69749;42.684;23.360;2023-05-10T03:37:34;7.22;;;4.68;;
80411;SDS011;69749;42.684;23.360;2023-05-10T03:40:00;9.18;;;5.25;;
80411;SDS011;69749;42.684;23.360;2023-05-10T03:42:26;7.32;;;5.00;;
80411;SDS011;69749;42.684;23.360;2023-05-10T03:44:52;7.95;;;4.97;;
80411;SDS011;69749;42.684;23.360;2023-05-10T03:47:17;7.10;;;4.88;;
80411;SDS011;69749;42.684;23.360;2023-05-10T03:49:42;8.20;;;5.55;;
80411;SDS011;69749;42.684;23.360;2023-05-10T03:52:08;7.22;;;4.95;;
80411;SDS011;69749;42.684;23.360;2023-05-10T03:54:33;6.25;;;5.18;;
80411;SDS011;69749;42.684;23.360;2023-05-10T03:56:59;7.07;;;4.97;;
80411;SDS011;69749;42.684;23.360;2023-05-10T03:59:25;7.30;;;4.57;;
80411;SDS011;69749;42.684;23.360;2023-05-10T04:01:51;6.43;;;4.82;;
80411;SDS011;69749;42.684;23.360;2023-05-10T04:04:16;7.85;;;5.25;;
80411;SDS011;69749;42.684;23.360;2023-05-10T04:06:43;5.88;;;4.63;;
80411;SDS011;69749;42.684;23.360;2023-05-10T04:09:09;8.63;;;6.20;;
80411;SDS011;69749;42.684;23.360;2023-05-10T04:11:35;7.25;;;5.18;;
80411;SDS011;69749;42.684;23.360;2023-05-10T04:14:01;6.88;;;5.32;;
80411;SDS011;69749;42.684;23.360;2023-05-10T04:16:26;8.85;;;5.43;;
80411;SDS011;69749;42.684;23.360;2023-05-10T04:18:52;8.27;;;5.80;;
80411;SDS011;69749;42.684;23.360;2023-05-10T04:21:17;7.75;;;5.13;;
80411;SDS011;69749;42.684;23.360;2023-05-10T04:23:42;8.48;;;6.15;;
80411;SDS011;69749;42.684;23.360;2023-05-10T04:26:08;7.97;;;4.82;;
80411;SDS011;69749;42.684;23.360;2023-05-10T04:28:33;6.50;;;4.78;;
80411;SDS011;69749;42.684;23.360;2023-05-10T04:33:31;8.57;;;4.88;;
80411;SDS011;69749;42.684;23.360;2023-05-10T04:35:56;9.52;;;5.65;;
80411;SDS011;69749;42.684;23.360;2023-05-10T04:38:22;9.90;;;5.00;;
80411;SDS011;69749;42.684;23.360;2023-05-10T04:40:47;6.15;;;4.70;;
80411;SDS011;69749;42.684;23.360;2023-05-10T04:43:13;8.05;;;5.10;;
80411;SDS011;69749;42.684;23.360;2023-05-10T04:45:38;7.97;;;4.85;;
80411;SDS011;69749;42.684;23.360;2023-05-10T04:48:03;8.30;;;5.00;;
80411;SDS011;69749;42.684;23.360;2023-05-10T04:50:29;8.15;;;5.85;;
80411;SDS011;69749;42.684;23.360;2023-05-10T04:52:55;6.97;;;5.38;;
80411;SDS011;69749;42.684;23.360;2023-05-10T04:55:20;11.35;;;5.70;;
80411;SDS011;69749;42.684;23.360;2023-05-10T04:57:46;8.55;;;5.72;;
80411;SDS011;69749;42.684;23.360;2023-05-10T05:00:11;9.23;;;6.78;;
80411;SDS011;69749;42.684;23.360;2023-05-10T05:02:37;6.43;;;5.53;;
80411;SDS011;69749;42.684;23.360;2023-05-10T05:05:03;8.73;;;5.72;;
80411;SDS011;69749;42.684;23.360;2023-05-10T05:07:29;9.02;;;6.03;;
80411;SDS011;69749;42.684;23.360;2023-05-10T05:09:55;10.88;;;6.00;;
80411;SDS011;69749;42.684;23.360;2023-05-10T05:12:21;9.95;;;5.82;;
80411;SDS011;69749;42.684;23.360;2023-05-10T05:14:46;17.48;;;6.97;;
80411;SDS011;69749;42.684;23.360;2023-05-10T05:17:12;7.75;;;5.95;;
80411;SDS011;69749;42.684;23.360;2023-05-10T05:19:37;11.10;;;6.53;;
80411;SDS011;69749;42.684;23.360;2023-05-10T05:22:03;9.60;;;6.07;;
80411;SDS011;69749;42.684;23.360;2023-05-10T05:24:28;9.30;;;6.20;;
80411;SDS011;69749;42.684;23.360;2023-05-10T05:26:53;10.13;;;6.60;;
80411;SDS011;69749;42.684;23.360;2023-05-10T05:29:19;9.48;;;6.65;;
80411;SDS011;69749;42.684;23.360;2023-05-10T05:31:44;11.73;;;6.35;;
80411;SDS011;69749;42.684;23.360;2023-05-10T05:34:09;11.55;;;6.72;;
80411;SDS011;69749;42.684;23.360;2023-05-10T05:36:36;9.27;;;7.00;;
80411;SDS011;69749;42.684;23.360;2023-05-10T05:39:03;11.13;;;7.50;;
80411;SDS011;69749;42.684;23.360;2023-05-10T05:41:28;11.30;;;7.18;;
80411;SDS011;69749;42.684;23.360;2023-05-10T05:43:54;12.85;;;7.07;;
80411;SDS011;69749;42.684;23.360;2023-05-10T05:46:19;10.93;;;7.30;;
80411;SDS011;69749;42.684;23.360;2023-05-10T05:48:45;7.75;;;6.00;;
80411;SDS011;69749;42.684;23.360;2023-05-10T05:51:10;8.90;;;5.90;;
80411;SDS011;69749;42.684;23.360;2023-05-10T05:53:36;9.80;;;6.45;;
80411;SDS011;69749;42.684;23.360;2023-05-10T05:56:01;10.18;;;6.10;;
80411;SDS011;69749;42.684;23.360;2023-05-10T05:58:27;11.43;;;6.57;;
80411;SDS011;69749;42.684;23.360;2023-05-10T06:00:53;11.07;;;6.82;;
80411;SDS011;69749;42.684;23.360;2023-05-10T06:03:18;8.70;;;5.97;;
80411;SDS011;69749;42.684;23.360;2023-05-10T06:05:44;21.35;;;7.68;;
80411;SDS011;69749;42.684;23.360;2023-05-10T06:08:10;10.50;;;6.07;;
80411;SDS011;69749;42.684;23.360;2023-05-10T06:10:35;12.95;;;7.05;;
80411;SDS011;69749;42.684;23.360;2023-05-10T06:13:01;11.02;;;7.07;;
80411;SDS011;69749;42.684;23.360;2023-05-10T06:15:26;10.48;;;6.40;;
80411;SDS011;69749;42.684;23.360;2023-05-10T06:17:52;7.72;;;5.43;;
80411;SDS011;69749;42.684;23.360;2023-05-10T06:20:17;8.75;;;5.32;;
80411;SDS011;69749;42.684;23.360;2023-05-10T06:22:43;7.88;;;5.88;;
80411;SDS011;69749;42.684;23.360;2023-05-10T06:35:56;8.70;;;5.28;;
80411;SDS011;69749;42.684;23.360;2023-05-10T06:38:22;9.10;;;6.57;;
80411;SDS011;69749;42.684;23.360;2023-05-10T06:40:47;7.93;;;5.60;;
80411;SDS011;69749;42.684;23.360;2023-05-10T06:43:13;9.82;;;6.65;;
80411;SDS011;69749;42.684;23.360;2023-05-10T06:45:39;8.55;;;6.32;;
80411;SDS011;69749;42.684;23.360;2023-05-10T06:48:05;8.85;;;6.20;;
80411;SDS011;69749;42.684;23.360;2023-05-10T06:50:31;8.63;;;5.70;;
80411;SDS011;69749;42.684;23.360;2023-05-10T06:52:57;9.77;;;5.80;;
80411;SDS011;69749;42.684;23.360;2023-05-10T06:55:23;9.55;;;5.47;;
80411;SDS011;69749;42.684;23.360;2023-05-10T06:57:48;8.07;;;5.38;;
80411;SDS011;69749;42.684;23.360;2023-05-10T07:00:14;8.25;;;6.18;;
80411;SDS011;69749;42.684;23.360;2023-05-10T07:02:39;9.25;;;5.05;;
80411;SDS011;69749;42.684;23.360;2023-05-10T07:05:05;8.57;;;5.93;;
80411;SDS011;69749;42.684;23.360;2023-05-10T07:07:31;15.63;;;6.13;;
80411;SDS011;69749;42.684;23.360;2023-05-10T07:09:56;6.88;;;5.15;;
80411;SDS011;69749;42.684;23.360;2023-05-10T07:12:22;12.05;;;7.03;;
80411;SDS011;69749;42.684;23.360;2023-05-10T07:14:48;7.35;;;5.72;;
80411;SDS011;69749;42.684;23.360;2023-05-10T07:17:13;7.47;;;5.45;;
80411;SDS011;69749;42.684;23.360;2023-05-10T07:19:39;9.52;;;6.30;;
80411;SDS011;69749;42.684;23.360;2023-05-10T07:22:04;10.05;;;6.85;;
80411;SDS011;69749;42.684;23.360;2023-05-10T07:24:30;10.35;;;5.97;;
80411;SDS011;69749;42.684;23.360;2023-05-10T07:26:57;10.35;;;5.88;;
80411;SDS011;69749;42.684;23.360;2023-05-10T07:29:22;9.80;;;6.22;;
80411;SDS011;69749;42.684;23.360;2023-05-10T07:31:47;8.68;;;6.00;;
80411;SDS011;69749;42.684;23.360;2023-05-10T07:34:13;8.38;;;5.53;;
80411;SDS011;69749;42.684;23.360;2023-05-10T07:36:38;10.00;;;5.78;;
80411;SDS011;69749;42.684;23.360;2023-05-10T07:39:04;10.65;;;5.93;;
80411;SDS011;69749;42.684;23.360;2023-05-10T07:41:29;10.05;;;6.00;;
80411;SDS011;69749;42.684;23.360;2023-05-10T07:43:55;13.93;;;6.55;;
80411;SDS011;69749;42.684;23.360;2023-05-10T07:46:20;12.45;;;6.80;;
80411;SDS011;69749;42.684;23.360;2023-05-10T07:48:46;10.82;;;6.82;;
80411;SDS011;69749;42.684;23.360;2023-05-10T07:51:11;10.43;;;7.00;;
80411;SDS011;69749;42.684;23.360;2023-05-10T07:53:37;13.60;;;7.32;;
80411;SDS011;69749;42.684;23.360;2023-05-10T07:56:19;11.82;;;7.60;;
80411;SDS011;69749;42.684;23.360;2023-05-10T07:58:56;9.70;;;7.35;;
80411;SDS011;69749;42.684;23.360;2023-05-10T08:01:22;12.27;;;7.10;;
80411;SDS011;69749;42.684;23.360;2023-05-10T08:03:48;11.00;;;7.45;;
80411;SDS011;69749;42.684;23.360;2023-05-10T08:06:16;11.18;;;7.15;;
80411;SDS011;69749;42.684;23.360;2023-05-10T08:08:42;12.65;;;7.35;;
80411;SDS011;69749;42.684;23.360;2023-05-10T08:11:08;12.68;;;8.18;;
80411;SDS011;69749;42.684;23.360;2023-05-10T08:13:33;11.48;;;7.60;;
80411;SDS011;69749;42.684;23.360;2023-05-10T08:15:59;14.80;;;7.80;;
80411;SDS011;69749;42.684;23.360;2023-05-10T08:18:24;11.65;;;7.18;;
80411;SDS011;69749;42.684;23.360;2023-05-10T08:20:50;10.88;;;7.68;;
80411;SDS011;69749;42.684;23.360;2023-05-10T08:23:15;10.93;;;7.93;;
80411;SDS011;69749;42.684;23.360;2023-05-10T08:25:40;11.18;;;7.05;;
80411;SDS011;69749;42.684;23.360;2023-05-10T08:28:06;11.88;;;7.07;;
80411;SDS011;69749;42.684;23.360;2023-05-10T08:30:31;11.98;;;7.57;;
80411;SDS011;69749;42.684;23.360;2023-05-10T08:32:57;10.65;;;6.97;;
80411;SDS011;69749;42.684;23.360;2023-05-10T08:35:22;9.70;;;6.70;;
80411;SDS011;69749;42.684;23.360;2023-05-10T08:37:49;10.77;;;7.32;;
80411;SDS011;69749;42.684;23.360;2023-05-10T08:40:14;7.40;;;6.05;;
80411;SDS011;69749;42.684;23.360;2023-05-10T08:42:42;9.55;;;6.38;;
80411;SDS011;69749;42.684;23.360;2023-05-10T08:45:11;9.93;;;7.43;;
80411;SDS011;69749;42.684;23.360;2023-05-10T08:47:38;9.45;;;6.97;;
80411;SDS011;69749;42.684;23.360;2023-05-10T08:50:04;9.52;;;7.32;;
80411;SDS011;69749;42.684;23.360;2023-05-10T08:52:31;10.43;;;7.90;;
80411;SDS011;69749;42.684;23.360;2023-05-10T08:54:58;13.07;;;8.23;;
80411;SDS011;69749;42.684;23.360;2023-05-10T08:57:24;9.13;;;6.80;;
80411;SDS011;69749;42.684;23.360;2023-05-10T08:59:50;12.88;;;8.05;;
80411;SDS011;69749;42.684;23.360;2023-05-10T09:02:15;11.93;;;7.22;;
80411;SDS011;69749;42.684;23.360;2023-05-10T09:04:43;11.55;;;8.00;;
80411;SDS011;69749;42.684;23.360;2023-05-10T09:07:08;10.07;;;7.30;;
80411;SDS011;69749;42.684;23.360;2023-05-10T09:09:35;12.70;;;7.85;;
80411;SDS011;69749;42.684;23.360;2023-05-10T09:12:01;13.55;;;8.27;;
80411;SDS011;69749;42.684;23.360;2023-05-10T09:14:27;9.38;;;6.88;;
80411;SDS011;69749;42.684;23.360;2023-05-10T09:16:53;12.63;;;7.60;;
80411;SDS011;69749;42.684;23.360;2023-05-10T09:19:20;8.90;;;7.00;;
80411;SDS011;69749;42.684;23.360;2023-05-10T09:21:45;12.18;;;7.25;;
80411;SDS011;69749;42.684;23.360;2023-05-10T09:24:11;10.40;;;7.60;;
80411;SDS011;69749;42.684;23.360;2023-05-10T09:26:45;11.43;;;7.15;;
80411;SDS011;69749;42.684;23.360;2023-05-10T09:29:15;13.30;;;7.63;;
80411;SDS011;69749;42.684;23.360;2023-05-10T09:34:16;13.27;;;9.23;;
80411;SDS011;69749;42.684;23.360;2023-05-10T09:36:55;12.65;;;8.45;;
80411;SDS011;69749;42.684;23.360;2023-05-10T09:39:33;10.15;;;7.95;;
80411;SDS011;69749;42.684;23.360;2023-05-10T09:41:59;14.20;;;8.68;;
80411;SDS011;69749;42.684;23.360;2023-05-10T09:44:28;9.77;;;7.13;;
80411;SDS011;69749;42.684;23.360;2023-05-10T09:46:54;12.57;;;7.78;;
80411;SDS011;69749;42.684;23.360;2023-05-10T09:49:20;13.90;;;8.02;;
80411;SDS011;69749;42.684;23.360;2023-05-10T09:51:46;10.20;;;6.68;;
80411;SDS011;69749;42.684;23.360;2023-05-10T09:54:13;11.18;;;7.38;;
80411;SDS011;69749;42.684;23.360;2023-05-10T09:56:40;8.48;;;6.90;;
80411;SDS011;69749;42.684;23.360;2023-05-10T09:59:06;12.73;;;7.78;;
80411;SDS011;69749;42.684;23.360;2023-05-10T10:01:33;9.07;;;7.10;;
80411;SDS011;69749;42.684;23.360;2023-05-10T10:04:02;9.27;;;6.70;;
80411;SDS011;69749;42.684;23.360;2023-05-10T10:06:28;8.50;;;7.30;;
80411;SDS011;69749;42.684;23.360;2023-05-10T10:08:54;9.73;;;7.40;;
80411;SDS011;69749;42.684;23.360;2023-05-10T10:11:21;8.43;;;6.43;;
80411;SDS011;69749;42.684;23.360;2023-05-10T10:13:47;12.23;;;7.00;;
80411;SDS011;69749;42.684;23.360;2023-05-10T10:16:13;10.60;;;6.95;;
80411;SDS011;69749;42.684;23.360;2023-05-10T10:18:39;8.00;;;6.85;;
80411;SDS011;69749;42.684;23.360;2023-05-10T10:21:08;8.27;;;6.88;;
80411;SDS011;69749;42.684;23.360;2023-05-10T10:23:37;10.13;;;7.10;;
80411;SDS011;69749;42.684;23.360;2023-05-10T10:26:03;7.40;;;5.68;;
80411;SDS011;69749;42.684;23.360;2023-05-10T10:28:39;8.85;;;6.28;;
80411;SDS011;69749;42.684;23.360;2023-05-10T10:31:21;7.50;;;5.32;;
80411;SDS011;69749;42.684;23.360;2023-05-10T10:34:04;8.68;;;6.45;;
80411;SDS011;69749;42.684;23.360;2023-05-10T10:36:32;7.50;;;5.95;;
80411;SDS011;69749;42.684;23.360;2023-05-10T10:39:07;8.38;;;6.22;;
80411;SDS011;69749;42.684;23.360;2023-05-10T10:41:35;8.60;;;6.95;;
80411;SDS011;69749;42.684;23.360;2023-05-10T10:47:40;8.07;;;5.68;;
80411;SDS011;69749;42.684;23.360;2023-05-10T10:49:51;7.55;;;5.80;;
80411;SDS011;69749;42.684;23.360;2023-05-10T10:52:41;6.63;;;5.80;;
80411;SDS011;69749;42.684;23.360;2023-05-10T10:57:50;9.32;;;6.35;;
80411;SDS011;69749;42.684;23.360;2023-05-10T11:00:23;10.93;;;6.57;;
80411;SDS011;69749;42.684;23.360;2023-05-10T11:03:06;9.07;;;6.90;;
80411;SDS011;69749;42.684;23.360;2023-05-10T11:05:36;9.48;;;6.13;;
80411;SDS011;69749;42.684;23.360;2023-05-10T11:16:15;8.73;;;6.95;;
80411;SDS011;69749;42.684;23.360;2023-05-10T11:21:47;8.63;;;5.78;;
80411;SDS011;69749;42.684;23.360;2023-05-10T11:24:36;8.55;;;5.80;;
80411;SDS011;69749;42.684;23.360;2023-05-10T11:27:02;9.65;;;6.80;;
80411;SDS011;69749;42.684;23.360;2023-05-10T11:29:33;9.07;;;6.63;;
80411;SDS011;69749;42.684;23.360;2023-05-10T11:31:58;8.70;;;6.32;;
80411;SDS011;69749;42.684;23.360;2023-05-10T11:34:25;7.25;;;5.38;;
80411;SDS011;69749;42.684;23.360;2023-05-10T11:36:56;7.43;;;5.65;;
80411;SDS011;69749;42.684;23.360;2023-05-10T11:39:26;8.52;;;5.88;;
80411;SDS011;69749;42.684;23.360;2023-05-10T11:41:52;9.07;;;6.05;;
80411;SDS011;69749;42.684;23.360;2023-05-10T11:44:17;10.85;;;6.30;;
80411;SDS011;69749;42.684;23.360;2023-05-10T11:46:43;9.50;;;6.00;;
80411;SDS011;69749;42.684;23.360;2023-05-10T11:49:08;10.25;;;6.47;;
80411;SDS011;69749;42.684;23.360;2023-05-10T11:51:35;8.05;;;5.70;;
80411;SDS011;69749;42.684;23.360;2023-05-10T11:54:01;10.63;;;6.18;;
80411;SDS011;69749;42.684;23.360;2023-05-10T11:56:32;8.73;;;5.85;;
80411;SDS011;69749;42.684;23.360;2023-05-10T11:58:57;9.07;;;5.45;;
80411;SDS011;69749;42.684;23.360;2023-05-10T12:01:26;12.75;;;6.07;;
80411;SDS011;69749;42.684;23.360;2023-05-10T12:03:53;9.50;;;6.15;;
80411;SDS011;69749;42.684;23.360;2023-05-10T12:06:25;10.65;;;6.35;;
80411;SDS011;69749;42.684;23.360;2023-05-10T12:08:56;8.48;;;6.78;;
80411;SDS011;69749;42.684;23.360;2023-05-10T12:11:24;8.70;;;6.57;;
80411;SDS011;69749;42.684;23.360;2023-05-10T12:13:50;10.90;;;6.60;;
80411;SDS011;69749;42.684;23.360;2023-05-10T12:16:17;8.80;;;6.05;;
80411;SDS011;69749;42.684;23.360;2023-05-10T12:18:44;11.23;;;6.13;;
80411;SDS011;69749;42.684;23.360;2023-05-10T12:21:10;9.68;;;6.78;;
80411;SDS011;69749;42.684;23.360;2023-05-10T12:23:37;9.88;;;6.07;;
80411;SDS011;69749;42.684;23.360;2023-05-10T12:26:03;11.27;;;6.10;;
80411;SDS011;69749;42.684;23.360;2023-05-10T12:28:32;9.60;;;6.35;;
80411;SDS011;69749;42.684;23.360;2023-05-10T12:30:58;10.20;;;7.00;;
80411;SDS011;69749;42.684;23.360;2023-05-10T12:33:24;9.50;;;6.50;;
80411;SDS011;69749;42.684;23.360;2023-05-10T12:35:51;10.73;;;6.88;;
80411;SDS011;69749;42.684;23.360;2023-05-10T12:40:57;9.82;;;6.35;;
80411;SDS011;69749;42.684;23.360;2023-05-10T12:43:23;8.65;;;6.00;;
80411;SDS011;69749;42.684;23.360;2023-05-10T12:45:49;8.93;;;6.85;;
80411;SDS011;69749;42.684;23.360;2023-05-10T12:48:14;10.73;;;6.97;;
80411;SDS011;69749;42.684;23.360;2023-05-10T12:50:40;9.63;;;6.80;;
80411;SDS011;69749;42.684;23.360;2023-05-10T12:53:06;10.23;;;6.88;;
80411;SDS011;69749;42.684;23.360;2023-05-10T12:55:31;7.80;;;5.28;;
80411;SDS011;69749;42.684;23.360;2023-05-10T12:57:57;10.57;;;5.82;;
80411;SDS011;69749;42.684;23.360;2023-05-10T13:00:22;10.30;;;6.50;;
80411;SDS011;69749;42.684;23.360;2023-05-10T13:02:48;8.50;;;6.10;;
80411;SDS011;69749;42.684;23.360;2023-05-10T13:05:13;8.07;;;5.72;;
80411;SDS011;69749;42.684;23.360;2023-05-10T13:07:39;7.30;;;5.55;;
80411;SDS011;69749;42.684;23.360;2023-05-10T13:10:05;12.00;;;6.70;;
80411;SDS011;69749;42.684;23.360;2023-05-10T13:12:31;9.43;;;6.43;;
80411;SDS011;69749;42.684;23.360;2023-05-10T13:14:57;10.25;;;6.20;;
80411;SDS011;69749;42.684;23.360;2023-05-10T13:17:22;6.97;;;5.97;;
80411;SDS011;69749;42.684;23.360;2023-05-10T13:19:48;9.18;;;6.18;;
80411;SDS011;69749;42.684;23.360;2023-05-10T13:22:13;8.27;;;5.63;;
80411;SDS011;69749;42.684;23.360;2023-05-10T13:24:38;6.78;;;5.53;;
80411;SDS011;69749;42.684;23.360;2023-05-10T13:27:04;7.53;;;5.22;;
80411;SDS011;69749;42.684;23.360;2023-05-10T13:29:29;8.25;;;5.60;;
80411;SDS011;69749;42.684;23.360;2023-05-10T13:31:55;9.07;;;5.60;;
80411;SDS011;69749;42.684;23.360;2023-05-10T13:34:21;8.63;;;5.82;;
80411;SDS011;69749;42.684;23.360;2023-05-10T13:36:46;7.68;;;5.75;;
80411;SDS011;69749;42.684;23.360;2023-05-10T13:39:13;10.63;;;6.10;;
80411;SDS011;69749;42.684;23.360;2023-05-10T13:41:38;8.93;;;5.65;;
80411;SDS011;69749;42.684;23.360;2023-05-10T13:44:03;7.95;;;5.88;;
80411;SDS011;69749;42.684;23.360;2023-05-10T13:46:29;10.35;;;6.15;;
80411;SDS011;69749;42.684;23.360;2023-05-10T13:48:55;8.15;;;5.95;;
80411;SDS011;69749;42.684;23.360;2023-05-10T13:51:21;6.70;;;5.40;;
80411;SDS011;69749;42.684;23.360;2023-05-10T13:53:47;8.48;;;5.80;;
80411;SDS011;69749;42.684;23.360;2023-05-10T13:59:03;8.25;;;5.53;;
80411;SDS011;69749;42.684;23.360;2023-05-10T14:01:28;6.43;;;5.25;;
80411;SDS011;69749;42.684;23.360;2023-05-10T14:03:54;14.60;;;6.13;;
80411;SDS011;69749;42.684;23.360;2023-05-10T14:06:19;8.32;;;5.47;;
80411;SDS011;69749;42.684;23.360;2023-05-10T14:08:45;7.80;;;5.72;;
80411;SDS011;69749;42.684;23.360;2023-05-10T14:11:14;10.88;;;6.00;;
80411;SDS011;69749;42.684;23.360;2023-05-10T14:13:39;8.02;;;6.32;;
80411;SDS011;69749;42.684;23.360;2023-05-10T14:16:05;8.27;;;5.47;;
80411;SDS011;69749;42.684;23.360;2023-05-10T14:18:30;8.55;;;5.68;;
80411;SDS011;69749;42.684;23.360;2023-05-10T14:20:56;9.63;;;6.28;;
80411;SDS011;69749;42.684;23.360;2023-05-10T14:23:22;9.48;;;6.63;;
80411;SDS011;69749;42.684;23.360;2023-05-10T14:25:51;11.55;;;6.22;;
80411;SDS011;69749;42.684;23.360;2023-05-10T14:28:17;8.68;;;5.38;;
80411;SDS011;69749;42.684;23.360;2023-05-10T14:30:43;8.68;;;5.72;;
80411;SDS011;69749;42.684;23.360;2023-05-10T14:33:09;9.75;;;6.15;;
80411;SDS011;69749;42.684;23.360;2023-05-10T14:35:35;13.48;;;6.25;;
80411;SDS011;69749;42.684;23.360;2023-05-10T14:38:01;10.10;;;6.05;;
80411;SDS011;69749;42.684;23.360;2023-05-10T14:40:28;8.73;;;6.35;;
80411;SDS011;69749;42.684;23.360;2023-05-10T14:42:53;11.15;;;6.60;;
80411;SDS011;69749;42.684;23.360;2023-05-10T14:45:19;11.85;;;7.70;;
80411;SDS011;69749;42.684;23.360;2023-05-10T14:47:45;10.43;;;6.50;;
80411;SDS011;69749;42.684;23.360;2023-05-10T14:50:11;10.80;;;6.28;;
80411;SDS011;69749;42.684;23.360;2023-05-10T14:55:58;8.75;;;6.00;;
80411;SDS011;69749;42.684;23.360;2023-05-10T14:58:25;9.00;;;6.13;;
80411;SDS011;69749;42.684;23.360;2023-05-10T15:00:50;9.93;;;6.15;;
80411;SDS011;69749;42.684;23.360;2023-05-10T15:03:16;8.63;;;6.45;;
80411;SDS011;69749;42.684;23.360;2023-05-10T15:05:41;9.88;;;6.30;;
80411;SDS011;69749;42.684;23.360;2023-05-10T15:08:07;10.38;;;6.60;;
80411;SDS011;69749;42.684;23.360;2023-05-10T15:10:34;8.77;;;6.45;;
80411;SDS011;69749;42.684;23.360;2023-05-10T15:13:00;7.70;;;6.30;;
80411;SDS011;69749;42.684;23.360;2023-05-10T15:15:25;12.27;;;5.95;;
80411;SDS011;69749;42.684;23.360;2023-05-10T15:17:51;8.73;;;6.82;;
80411;SDS011;69749;42.684;23.360;2023-05-10T15:20:16;11.60;;;6.57;;
80411;SDS011;69749;42.684;23.360;2023-05-10T15:22:42;7.93;;;6.03;;
80411;SDS011;69749;42.684;23.360;2023-05-10T15:25:07;10.10;;;6.78;;
80411;SDS011;69749;42.684;23.360;2023-05-10T15:27:33;10.88;;;7.57;;